Time;durP1;ratioP1;P1;durP2;ratioP2;P2;SDS_P1;SDS_P2;PMS_P1;PMS_P2;Temp;Humidity;BMP_temperature;BMP_pressure;BME280_temperature;BME280_humidity;BME280_pressure;Samples;Min_cycle;Max_cycle;Signal;HPM_P1;HPM_P2
2024/01/26 00:01:55;;;;;;;13.75;3.70;;;;;;;;;;5073402;28;20120;-56
2024/01/26 00:04:21;;;;;;;17.20;3.88;;;;;;;;;;5068597;28;20028;-59
2024/01/26 00:06:47;;;;;;;17.85;3.65;;;;;;;;;;5072810;28;20033;-59
2024/01/26 00:09:15;;;;;;;17.33;3.47;;;;;;;;;;5072769;28;20029;-60
2024/01/26 00:11:41;;;;;;;17.38;4.40;;;;;;;;;;5073651;28;20512;-59
2024/01/26 00:14:07;;;;;;;16.88;4.80;;;;;;;;;;5070354;28;20041;-59
2024/01/26 00:16:34;;;;;;;20.52;4.43;;;;;;;;;;5053818;28;20032;-53
2024/01/26 00:19:00;;;;;;;19.25;3.95;;;;;;;;;;5060077;28;20063;-52
2024/01/26 00:21:26;;;;;;;16.48;5.20;;;;;;;;;;5071944;28;21397;-50
2024/01/26 00:23:52;;;;;;;17.45;5.75;;;;;;;;;;5071874;28;20394;-49
2024/01/26 00:26:18;;;;;;;16.85;4.18;;;;;;;;;;5059365;28;20075;-60
2024/01/26 00:28:44;;;;;;;17.05;4.10;;;;;;;;;;5058463;28;20032;-59
2024/01/26 00:31:16;;;;;;;18.30;3.88;;;;;;;;;;5063855;28;20033;-61
2024/01/26 00:33:43;;;;;;;22.38;4.20;;;;;;;;;;5065680;28;20093;-61
2024/01/26 00:36:09;;;;;;;14.38;3.58;;;;;;;;;;5071369;28;20036;-61
2024/01/26 00:38:35;;;;;;;12.40;3.22;;;;;;;;;;5064024;28;20039;-61
2024/01/26 00:41:01;;;;;;;12.68;3.70;;;;;;;;;;5062316;28;20029;-60
2024/01/26 00:43:27;;;;;;;18.92;4.13;;;;;;;;;;5068769;28;20493;-60
2024/01/26 00:45:53;;;;;;;11.23;3.53;;;;;;;;;;5069792;28;20074;-60
2024/01/26 00:48:19;;;;;;;14.13;4.07;;;;;;;;;;5072312;28;20032;-60
2024/01/26 00:50:46;;;;;;;26.45;3.97;;;;;;;;;;5072516;28;20111;-61
2024/01/26 00:53:12;;;;;;;16.45;3.50;;;;;;;;;;5053682;28;20060;-59
2024/01/26 00:55:38;;;;;;;25.20;5.13;;;;;;;;;;5065296;28;20033;-60
2024/01/26 00:58:05;;;;;;;20.17;4.15;;;;;;;;;;5065394;28;20028;-60
2024/01/26 01:00:31;;;;;;;19.65;3.75;;;;;;;;;;5071170;28;20027;-60
2024/01/26 01:02:57;;;;;;;17.83;4.35;;;;;;;;;;5056505;28;20033;-60
2024/01/26 01:05:23;;;;;;;12.57;3.33;;;;;;;;;;5068136;28;20024;-61
2024/01/26 01:07:49;;;;;;;15.05;3.67;;;;;;;;;;5067658;28;20371;-59
2024/01/26 01:10:15;;;;;;;16.75;4.65;;;;;;;;;;5071806;28;20021;-60
2024/01/26 01:12:42;;;;;;;15.85;3.95;;;;;;;;;;5072264;28;20021;-60
2024/01/26 01:15:11;;;;;;;16.15;3.55;;;;;;;;;;5066370;28;20444;-60
2024/01/26 01:17:40;;;;;;;13.60;3.25;;;;;;;;;;5064785;28;20029;-60
2024/01/26 01:20:08;;;;;;;16.98;4.00;;;;;;;;;;5071823;28;20035;-60
2024/01/26 01:22:34;;;;;;;10.30;3.63;;;;;;;;;;5071058;28;20497;-61
2024/01/26 01:25:00;;;;;;;13.82;3.83;;;;;;;;;;5066539;28;20029;-60
2024/01/26 01:27:26;;;;;;;15.30;4.15;;;;;;;;;;5069560;28;20518;-60
2024/01/26 01:29:52;;;;;;;15.77;4.28;;;;;;;;;;5069577;28;20028;-60
2024/01/26 01:32:18;;;;;;;13.27;3.75;;;;;;;;;;5070534;28;20028;-59
2024/01/26 01:34:44;;;;;;;18.60;3.83;;;;;;;;;;5066114;28;20040;-60
2024/01/26 01:37:10;;;;;;;17.50;3.58;;;;;;;;;;5072093;28;20028;-48
2024/01/26 01:39:37;;;;;;;19.17;4.22;;;;;;;;;;5057807;28;20051;-49
2024/01/26 01:42:03;;;;;;;12.85;4.22;;;;;;;;;;5063310;28;20086;-48
2024/01/26 01:44:30;;;;;;;18.77;4.13;;;;;;;;;;5060613;28;20052;-48
2024/01/26 01:46:56;;;;;;;16.67;3.65;;;;;;;;;;5063105;28;20394;-47
2024/01/26 01:49:23;;;;;;;25.40;4.75;;;;;;;;;;5068115;28;20103;-50
2024/01/26 01:51:50;;;;;;;12.60;3.60;;;;;;;;;;5069077;28;20025;-50
2024/01/26 01:54:16;;;;;;;18.60;4.30;;;;;;;;;;5070674;28;20035;-47
2024/01/26 01:56:43;;;;;;;14.13;4.13;;;;;;;;;;5069364;28;20130;-49
2024/01/26 01:59:09;;;;;;;18.35;3.63;;;;;;;;;;5052954;28;20035;-49
2024/01/26 02:01:35;;;;;;;27.48;5.63;;;;;;;;;;5064132;28;20025;-49
2024/01/26 02:04:02;;;;;;;15.15;4.10;;;;;;;;;;5066530;28;20052;-51
2024/01/26 02:06:28;;;;;;;18.40;4.80;;;;;;;;;;5070159;28;20044;-52
2024/01/26 02:08:54;;;;;;;24.73;5.10;;;;;;;;;;5069701;28;20143;-49
2024/01/26 02:11:20;;;;;;;23.75;4.95;;;;;;;;;;5070527;28;20099;-49
2024/01/26 02:13:46;;;;;;;16.30;4.47;;;;;;;;;;5070710;28;20132;-46
2024/01/26 02:16:12;;;;;;;23.88;5.53;;;;;;;;;;5061710;28;20037;-51
2024/01/26 02:18:38;;;;;;;18.77;4.45;;;;;;;;;;5052924;28;20040;-52
2024/01/26 02:21:04;;;;;;;17.65;4.47;;;;;;;;;;5070105;28;20033;-48
2024/01/26 02:23:30;;;;;;;14.93;3.95;;;;;;;;;;5057770;28;20104;-51
2024/01/26 02:25:56;;;;;;;19.40;4.38;;;;;;;;;;5055824;28;20037;-48
2024/01/26 02:28:23;;;;;;;14.98;4.15;;;;;;;;;;5072350;28;20043;-48
2024/01/26 02:30:49;;;;;;;18.35;4.75;;;;;;;;;;5075421;28;20037;-53
2024/01/26 02:33:15;;;;;;;26.65;4.75;;;;;;;;;;5075139;28;20036;-51
2024/01/26 02:35:41;;;;;;;23.25;5.65;;;;;;;;;;5060852;28;20512;-51
2024/01/26 02:38:07;;;;;;;12.27;4.18;;;;;;;;;;5061142;28;20025;-49
2024/01/26 02:40:33;;;;;;;15.63;4.05;;;;;;;;;;5064035;28;20017;-53
2024/01/26 02:42:59;;;;;;;18.00;4.25;;;;;;;;;;5073981;28;20082;-53
2024/01/26 02:45:25;;;;;;;16.52;3.80;;;;;;;;;;5073682;28;20028;-51
2024/01/26 02:47:51;;;;;;;17.02;4.38;;;;;;;;;;5059791;28;20072;-50
2024/01/26 02:50:17;;;;;;;21.10;4.63;;;;;;;;;;5055272;28;20029;-50
2024/01/26 02:52:43;;;;;;;21.50;5.13;;;;;;;;;;5068440;28;20035;-47
2024/01/26 02:55:09;;;;;;;21.35;4.93;;;;;;;;;;5071358;28;20078;-50
2024/01/26 02:57:35;;;;;;;16.85;4.80;;;;;;;;;;5072501;28;20028;-51
2024/01/26 03:00:01;;;;;;;19.42;4.88;;;;;;;;;;5073594;28;20099;-48
2024/01/26 03:02:27;;;;;;;22.10;4.30;;;;;;;;;;5063795;28;20486;-49
2024/01/26 03:04:53;;;;;;;16.05;3.55;;;;;;;;;;5068494;28;20542;-49
2024/01/26 03:07:19;;;;;;;17.40;3.33;;;;;;;;;;5054850;28;20033;-54
2024/01/26 03:09:45;;;;;;;16.35;4.65;;;;;;;;;;5054714;28;20118;-53
2024/01/26 03:12:11;;;;;;;12.68;4.22;;;;;;;;;;5070783;28;20478;-50
2024/01/26 03:14:37;;;;;;;16.48;3.95;;;;;;;;;;5066345;28;20548;-53
2024/01/26 03:17:02;;;;;;;12.77;4.20;;;;;;;;;;5074144;28;20477;-51
2024/01/26 03:19:29;;;;;;;12.82;4.65;;;;;;;;;;5073591;28;20461;-50
2024/01/26 03:21:55;;;;;;;12.00;4.65;;;;;;;;;;5054806;28;20029;-48
2024/01/26 03:24:20;;;;;;;20.50;5.40;;;;;;;;;;5071774;28;20066;-50
2024/01/26 03:26:46;;;;;;;26.23;4.60;;;;;;;;;;5069797;28;20124;-48
2024/01/26 03:29:12;;;;;;;15.70;4.85;;;;;;;;;;5059884;28;20020;-50
2024/01/26 03:31:39;;;;;;;14.95;4.55;;;;;;;;;;5054431;28;20028;-50
2024/01/26 03:34:04;;;;;;;16.50;5.18;;;;;;;;;;5072653;28;20025;-49
2024/01/26 03:36:31;;;;;;;20.15;6.50;;;;;;;;;;5073093;28;20493;-52
2024/01/26 03:38:57;;;;;;;17.52;5.25;;;;;;;;;;5073315;28;20029;-53
2024/01/26 03:41:23;;;;;;;26.60;7.57;;;;;;;;;;5069899;28;20021;-48
2024/01/26 03:43:51;;;;;;;24.83;6.47;;;;;;;;;;5073007;28;20024;-49
2024/01/26 03:46:17;;;;;;;16.65;5.30;;;;;;;;;;5072612;28;20079;-52
2024/01/26 03:48:43;;;;;;;23.67;5.63;;;;;;;;;;5062190;28;20029;-48
2024/01/26 03:51:09;;;;;;;15.93;5.50;;;;;;;;;;5064416;28;20038;-49
2024/01/26 03:53:35;;;;;;;25.02;6.43;;;;;;;;;;5070526;28;20020;-48
2024/01/26 03:56:02;;;;;;;18.23;5.80;;;;;;;;;;5071118;28;20118;-49
2024/01/26 03:58:28;;;;;;;21.25;4.80;;;;;;;;;;5071519;28;20020;-48
2024/01/26 04:00:54;;;;;;;21.60;5.57;;;;;;;;;;5072680;28;20036;-51
2024/01/26 04:03:21;;;;;;;18.52;5.40;;;;;;;;;;5072958;28;20025;-49
2024/01/26 04:05:47;;;;;;;16.40;5.70;;;;;;;;;;5068146;28;20493;-49
2024/01/26 04:08:13;;;;;;;13.80;4.95;;;;;;;;;;5067392;28;20083;-49
2024/01/26 04:10:39;;;;;;;14.60;5.13;;;;;;;;;;5063495;28;20039;-50
2024/01/26 04:13:05;;;;;;;22.73;4.90;;;;;;;;;;5070065;28;20046;-51
2024/01/26 04:15:31;;;;;;;18.00;4.50;;;;;;;;;;5055750;28;20044;-50
2024/01/26 04:17:57;;;;;;;24.90;4.50;;;;;;;;;;5053404;28;20029;-52
2024/01/26 04:20:23;;;;;;;15.25;5.00;;;;;;;;;;5069648;28;20474;-49
2024/01/26 04:22:49;;;;;;;23.58;5.90;;;;;;;;;;5049173;28;20060;-49
2024/01/26 04:25:15;;;;;;;13.10;4.70;;;;;;;;;;5069997;28;20024;-49
2024/01/26 04:27:41;;;;;;;18.08;5.28;;;;;;;;;;5066018;28;20402;-58
2024/01/26 04:30:08;;;;;;;17.45;5.10;;;;;;;;;;5072011;28;20029;-58
2024/01/26 04:32:34;;;;;;;17.40;5.15;;;;;;;;;;5063199;28;20033;-59
2024/01/26 04:35:00;;;;;;;15.77;5.25;;;;;;;;;;5066761;28;20035;-57
2024/01/26 04:37:26;;;;;;;15.52;4.78;;;;;;;;;;5067934;28;20060;-50
2024/01/26 04:39:52;;;;;;;18.95;5.45;;;;;;;;;;5065491;28;20032;-48
2024/01/26 04:42:18;;;;;;;12.93;5.20;;;;;;;;;;5066661;28;20478;-47
2024/01/26 04:44:44;;;;;;;16.38;5.88;;;;;;;;;;5070580;28;20035;-52
2024/01/26 04:47:10;;;;;;;22.40;5.15;;;;;;;;;;5055323;28;20059;-52
2024/01/26 04:49:36;;;;;;;16.90;4.57;;;;;;;;;;5068275;28;20028;-50
2024/01/26 04:52:02;;;;;;;21.25;5.28;;;;;;;;;;5069885;28;20090;-49
2024/01/26 04:54:28;;;;;;;18.10;5.00;;;;;;;;;;5067660;28;20025;-52
2024/01/26 04:56:54;;;;;;;21.10;5.70;;;;;;;;;;5053483;28;20031;-48
2024/01/26 04:59:20;;;;;;;28.08;5.68;;;;;;;;;;5072266;28;20020;-48
2024/01/26 05:01:46;;;;;;;15.48;5.32;;;;;;;;;;5071147;28;20032;-47
2024/01/26 05:04:12;;;;;;;20.10;5.60;;;;;;;;;;5062365;28;20033;-48
2024/01/26 05:06:38;;;;;;;20.73;5.47;;;;;;;;;;5061856;28;20039;-50
2024/01/26 05:09:04;;;;;;;18.73;5.55;;;;;;;;;;5069527;28;20040;-48
2024/01/26 05:11:30;;;;;;;22.20;5.43;;;;;;;;;;5064326;28;20037;-48
2024/01/26 05:13:56;;;;;;;23.15;5.68;;;;;;;;;;5048571;28;20048;-50
2024/01/26 05:16:22;;;;;;;15.77;5.82;;;;;;;;;;5069461;28;20036;-48
2024/01/26 05:18:48;;;;;;;14.93;5.28;;;;;;;;;;5070397;28;20028;-51
2024/01/26 05:21:14;;;;;;;20.15;6.25;;;;;;;;;;5061934;28;20029;-48
2024/01/26 05:23:41;;;;;;;14.00;6.70;;;;;;;;;;5064128;28;20485;-56
2024/01/26 05:26:07;;;;;;;28.27;7.22;;;;;;;;;;5063209;28;20028;-55
2024/01/26 05:28:33;;;;;;;21.88;7.47;;;;;;;;;;5067807;28;20029;-53
2024/01/26 05:30:59;;;;;;;20.45;6.38;;;;;;;;;;5067395;28;20033;-49
2024/01/26 05:33:25;;;;;;;27.85;6.80;;;;;;;;;;5064583;28;20043;-51
2024/01/26 05:35:51;;;;;;;22.52;6.55;;;;;;;;;;5070132;28;20032;-61
2024/01/26 05:38:17;;;;;;;20.60;6.70;;;;;;;;;;5065021;28;20033;-58
2024/01/26 05:40:43;;;;;;;25.15;7.15;;;;;;;;;;5069875;28;20028;-59
2024/01/26 05:43:08;;;;;;;16.05;6.25;;;;;;;;;;5058946;28;20469;-60
2024/01/26 05:45:34;;;;;;;19.77;5.90;;;;;;;;;;5060735;28;20583;-51
2024/01/26 05:48:00;;;;;;;24.63;6.10;;;;;;;;;;5068495;28;20024;-51
2024/01/26 05:50:26;;;;;;;14.55;5.88;;;;;;;;;;5068144;28;20074;-53
2024/01/26 05:52:53;;;;;;;12.85;5.88;;;;;;;;;;5067925;28;20033;-51
2024/01/26 05:55:19;;;;;;;20.58;7.22;;;;;;;;;;5059541;28;20028;-49
2024/01/26 05:57:45;;;;;;;26.90;8.23;;;;;;;;;;5064464;28;20074;-54
2024/01/26 06:00:11;;;;;;;25.35;7.32;;;;;;;;;;5071149;28;20029;-49
2024/01/26 06:02:37;;;;;;;26.40;7.25;;;;;;;;;;5066531;28;20042;-53
2024/01/26 06:05:03;;;;;;;19.58;6.68;;;;;;;;;;5067049;28;20474;-49
2024/01/26 06:07:29;;;;;;;18.05;7.20;;;;;;;;;;5070831;28;20109;-51
2024/01/26 06:09:55;;;;;;;19.52;5.82;;;;;;;;;;5068132;28;20104;-50
2024/01/26 06:12:21;;;;;;;17.15;5.72;;;;;;;;;;5069264;28;20055;-51
2024/01/26 06:14:47;;;;;;;20.58;6.35;;;;;;;;;;5065467;28;20056;-53
2024/01/26 06:17:13;;;;;;;21.80;6.53;;;;;;;;;;5063219;28;20036;-50
2024/01/26 06:19:39;;;;;;;24.17;6.85;;;;;;;;;;5064185;28;20029;-49
2024/01/26 06:22:04;;;;;;;20.25;6.80;;;;;;;;;;5071107;28;20028;-49
2024/01/26 06:24:30;;;;;;;24.60;6.85;;;;;;;;;;5069494;28;20020;-52
2024/01/26 06:26:57;;;;;;;23.02;6.97;;;;;;;;;;5070204;28;20029;-55
2024/01/26 06:29:23;;;;;;;25.75;7.53;;;;;;;;;;5070778;28;20028;-52
2024/01/26 06:31:49;;;;;;;26.20;6.95;;;;;;;;;;5070461;28;20482;-51
2024/01/26 06:34:14;;;;;;;24.48;7.50;;;;;;;;;;5070871;28;20032;-51
2024/01/26 06:36:41;;;;;;;23.98;7.90;;;;;;;;;;5062481;28;20506;-51
2024/01/26 06:39:08;;;;;;;17.52;6.43;;;;;;;;;;5070307;28;20123;-50
2024/01/26 06:41:36;;;;;;;26.05;7.13;;;;;;;;;;5069872;28;20056;-50
2024/01/26 06:44:02;;;;;;;21.85;6.75;;;;;;;;;;5056795;28;20082;-49
2024/01/26 06:46:28;;;;;;;27.83;7.05;;;;;;;;;;5065628;28;20474;-61
2024/01/26 06:48:55;;;;;;;25.05;7.53;;;;;;;;;;5051385;28;20093;-61
2024/01/26 06:51:21;;;;;;;25.02;7.85;;;;;;;;;;5057151;28;20522;-60
2024/01/26 06:53:47;;;;;;;26.23;8.18;;;;;;;;;;5067620;28;20043;-60
2024/01/26 06:56:13;;;;;;;24.80;7.53;;;;;;;;;;5061923;28;20040;-61
2024/01/26 06:58:38;;;;;;;35.38;8.55;;;;;;;;;;5063310;28;20375;-61
2024/01/26 07:01:05;;;;;;;19.58;8.02;;;;;;;;;;5070075;28;20021;-61
2024/01/26 07:03:31;;;;;;;26.30;8.00;;;;;;;;;;5070009;28;20016;-61
2024/01/26 07:05:57;;;;;;;26.20;8.23;;;;;;;;;;5070252;28;20041;-61
2024/01/26 07:08:23;;;;;;;21.45;7.45;;;;;;;;;;5069335;28;20070;-61
2024/01/26 07:10:49;;;;;;;19.85;7.60;;;;;;;;;;5068697;28;20035;-55
2024/01/26 07:13:15;;;;;;;20.13;6.82;;;;;;;;;;5064236;28;20016;-60
2024/01/26 07:15:40;;;;;;;21.23;7.15;;;;;;;;;;5073314;28;20647;-60
2024/01/26 07:18:06;;;;;;;21.83;8.07;;;;;;;;;;5073147;28;20479;-60
2024/01/26 07:20:32;;;;;;;21.45;7.00;;;;;;;;;;5073608;28;20508;-60
2024/01/26 07:22:58;;;;;;;25.77;7.63;;;;;;;;;;5073311;28;20032;-61
2024/01/26 07:25:24;;;;;;;17.60;6.80;;;;;;;;;;5072896;28;20086;-60
2024/01/26 07:27:50;;;;;;;25.52;7.05;;;;;;;;;;5071661;28;20028;-61
2024/01/26 07:30:18;;;;;;;26.27;8.80;;;;;;;;;;5073167;28;20035;-60
2024/01/26 07:32:45;;;;;;;24.10;7.60;;;;;;;;;;5073377;28;20055;-59
2024/01/26 07:35:10;;;;;;;24.83;7.45;;;;;;;;;;5073215;28;20024;-61
2024/01/26 07:37:37;;;;;;;16.70;6.85;;;;;;;;;;5065447;28;20409;-59
2024/01/26 07:40:04;;;;;;;24.77;7.40;;;;;;;;;;5073082;28;20020;-61
2024/01/26 07:42:33;;;;;;;26.25;7.65;;;;;;;;;;5073106;28;20082;-58
2024/01/26 07:44:59;;;;;;;16.50;6.78;;;;;;;;;;5067899;28;20047;-61
2024/01/26 07:47:25;;;;;;;23.92;7.40;;;;;;;;;;5072930;28;20036;-60
2024/01/26 07:49:51;;;;;;;31.67;6.97;;;;;;;;;;5073270;28;20025;-60
2024/01/26 07:52:17;;;;;;;26.63;5.95;;;;;;;;;;5072915;28;20048;-61
2024/01/26 07:54:43;;;;;;;21.63;7.15;;;;;;;;;;5060965;28;20094;-60
2024/01/26 07:57:10;;;;;;;27.25;7.38;;;;;;;;;;5070350;28;20035;-59
2024/01/26 07:59:36;;;;;;;24.45;7.85;;;;;;;;;;5073051;28;20021;-60
2024/01/26 08:02:02;;;;;;;23.13;6.55;;;;;;;;;;5070892;28;20039;-61
2024/01/26 08:04:28;;;;;;;20.50;5.82;;;;;;;;;;5056150;28;20021;-61
2024/01/26 08:06:53;;;;;;;23.25;6.22;;;;;;;;;;5060769;28;20108;-48
2024/01/26 08:09:19;;;;;;;14.80;5.63;;;;;;;;;;5059413;28;20031;-48
2024/01/26 08:11:45;;;;;;;22.83;7.30;;;;;;;;;;5065590;28;20029;-51
2024/01/26 08:14:11;;;;;;;27.95;6.80;;;;;;;;;;5066587;28;20060;-48
2024/01/26 08:16:38;;;;;;;17.92;6.28;;;;;;;;;;5068306;28;20419;-49
2024/01/26 08:19:04;;;;;;;18.50;5.78;;;;;;;;;;5072577;28;20025;-52
2024/01/26 08:21:30;;;;;;;23.75;6.82;;;;;;;;;;5071648;28;20397;-52
2024/01/26 08:23:56;;;;;;;28.65;7.68;;;;;;;;;;5072117;28;20389;-50
2024/01/26 08:26:22;;;;;;;24.65;6.82;;;;;;;;;;5070779;28;20032;-51
2024/01/26 08:28:48;;;;;;;25.02;7.47;;;;;;;;;;5072632;28;20038;-49
2024/01/26 08:31:14;;;;;;;22.77;7.22;;;;;;;;;;5072209;28;20040;-47
2024/01/26 08:33:40;;;;;;;28.73;7.63;;;;;;;;;;5071997;28;20032;-50
2024/01/26 08:36:07;;;;;;;26.70;6.18;;;;;;;;;;5060237;28;20082;-50
2024/01/26 08:38:32;;;;;;;26.45;7.28;;;;;;;;;;5072224;28;20104;-50
2024/01/26 08:40:58;;;;;;;21.35;7.28;;;;;;;;;;5071201;28;20043;-51
2024/01/26 08:43:24;;;;;;;23.63;6.55;;;;;;;;;;5058219;28;20025;-53
2024/01/26 08:45:50;;;;;;;25.95;7.53;;;;;;;;;;5071041;28;20082;-51
2024/01/26 08:48:16;;;;;;;20.80;6.30;;;;;;;;;;5071775;28;20032;-50
2024/01/26 08:50:43;;;;;;;25.58;7.28;;;;;;;;;;5071823;28;20025;-49
2024/01/26 08:53:09;;;;;;;18.83;6.50;;;;;;;;;;5071471;28;20062;-51
2024/01/26 08:55:35;;;;;;;22.48;6.93;;;;;;;;;;5071303;28;20035;-49
2024/01/26 08:58:02;;;;;;;24.85;7.25;;;;;;;;;;5069202;28;20039;-49
2024/01/26 09:00:28;;;;;;;16.92;6.05;;;;;;;;;;5071893;28;20021;-52
2024/01/26 09:02:54;;;;;;;20.73;6.47;;;;;;;;;;5071406;28;20059;-48
2024/01/26 09:05:20;;;;;;;30.05;6.88;;;;;;;;;;5065604;28;20390;-53
2024/01/26 09:07:46;;;;;;;22.13;6.60;;;;;;;;;;5071575;28;20485;-50
2024/01/26 09:10:12;;;;;;;18.58;6.65;;;;;;;;;;5071408;28;20106;-52
2024/01/26 09:12:38;;;;;;;17.92;6.50;;;;;;;;;;5060188;28;20037;-52
2024/01/26 09:15:04;;;;;;;30.80;8.70;;;;;;;;;;5070957;28;20067;-52
2024/01/26 09:17:30;;;;;;;24.75;6.40;;;;;;;;;;5071467;28;20044;-50
2024/01/26 09:19:56;;;;;;;23.58;7.22;;;;;;;;;;5071402;28;20025;-49
2024/01/26 09:22:23;;;;;;;21.40;6.22;;;;;;;;;;5070926;28;20032;-52
2024/01/26 09:24:49;;;;;;;25.55;7.72;;;;;;;;;;5070668;28;20038;-52
2024/01/26 09:27:15;;;;;;;24.88;7.15;;;;;;;;;;5071436;28;20021;-51
2024/01/26 09:29:41;;;;;;;24.70;5.93;;;;;;;;;;5069906;28;20024;-50
2024/01/26 09:32:07;;;;;;;23.50;5.30;;;;;;;;;;5071000;28;20031;-51
2024/01/26 09:34:33;;;;;;;25.73;6.47;;;;;;;;;;5070490;28;20025;-49
2024/01/26 09:36:59;;;;;;;19.25;5.97;;;;;;;;;;5070829;28;20485;-51
2024/01/26 09:39:25;;;;;;;19.40;6.90;;;;;;;;;;5071410;28;20390;-50
2024/01/26 09:41:51;;;;;;;25.65;6.82;;;;;;;;;;5071245;28;20024;-52
2024/01/26 09:44:17;;;;;;;23.17;6.03;;;;;;;;;;5070558;28;20481;-55
2024/01/26 09:46:44;;;;;;;13.98;5.63;;;;;;;;;;5069342;28;20097;-52
2024/01/26 09:49:10;;;;;;;22.67;6.32;;;;;;;;;;5070552;28;20038;-51
2024/01/26 09:51:36;;;;;;;15.00;5.57;;;;;;;;;;5053094;28;20040;-51
2024/01/26 09:54:04;;;;;;;21.30;5.88;;;;;;;;;;5070494;28;20105;-50
2024/01/26 09:56:32;;;;;;;25.25;6.20;;;;;;;;;;5053421;28;20027;-49
2024/01/26 09:58:58;;;;;;;18.75;5.93;;;;;;;;;;5068378;28;20021;-49
2024/01/26 10:01:25;;;;;;;14.93;5.25;;;;;;;;;;5069456;28;20028;-52
2024/01/26 10:03:52;;;;;;;17.92;6.32;;;;;;;;;;5057928;28;20394;-52
2024/01/26 10:06:21;;;;;;;25.17;7.22;;;;;;;;;;5055259;28;20174;-51
2024/01/26 10:08:47;;;;;;;15.80;5.40;;;;;;;;;;5070802;28;20512;-50
2024/01/26 10:11:13;;;;;;;21.30;6.07;;;;;;;;;;5067991;28;20102;-49
2024/01/26 10:13:39;;;;;;;21.73;5.78;;;;;;;;;;5062460;28;20040;-53
2024/01/26 10:16:09;;;;;;;13.50;5.13;;;;;;;;;;5067297;28;20036;-60
2024/01/26 10:18:39;;;;;;;21.40;5.50;;;;;;;;;;5070478;28;20459;-60
2024/01/26 10:21:05;;;;;;;17.02;5.65;;;;;;;;;;5070878;28;20028;-60
2024/01/26 10:23:31;;;;;;;22.02;6.00;;;;;;;;;;5067787;28;20085;-59
2024/01/26 10:25:57;;;;;;;18.45;6.55;;;;;;;;;;5052713;28;20135;-53
2024/01/26 10:28:23;;;;;;;19.17;5.47;;;;;;;;;;5070778;28;20382;-53
2024/01/26 10:30:49;;;;;;;16.13;5.35;;;;;;;;;;5069538;28;20020;-52
2024/01/26 10:33:15;;;;;;;18.55;6.65;;;;;;;;;;5070395;28;20032;-51
2024/01/26 10:35:45;;;;;;;19.02;5.65;;;;;;;;;;5066405;28;20028;-55
2024/01/26 10:38:12;;;;;;;15.45;5.53;;;;;;;;;;5060306;28;20032;-52
2024/01/26 10:40:38;;;;;;;13.82;4.47;;;;;;;;;;5066878;28;20109;-49
2024/01/26 10:43:04;;;;;;;19.42;6.35;;;;;;;;;;5059495;28;20149;-49
2024/01/26 10:45:31;;;;;;;13.63;4.68;;;;;;;;;;5070186;28;20028;-51
2024/01/26 10:47:57;;;;;;;13.85;5.22;;;;;;;;;;5070477;28;20495;-49
2024/01/26 10:50:24;;;;;;;12.40;5.13;;;;;;;;;;5043345;28;20144;-51
2024/01/26 10:52:51;;;;;;;16.92;5.20;;;;;;;;;;5074224;28;20032;-53
2024/01/26 10:55:17;;;;;;;14.90;4.70;;;;;;;;;;5070858;28;20029;-54
2024/01/26 10:57:43;;;;;;;16.95;5.40;;;;;;;;;;5069462;28;20482;-53
2024/01/26 11:00:12;;;;;;;11.82;5.05;;;;;;;;;;5067673;28;20025;-53
2024/01/26 11:02:38;;;;;;;14.63;5.50;;;;;;;;;;5060996;28;20032;-50
2024/01/26 11:05:07;;;;;;;19.15;5.63;;;;;;;;;;5069630;28;20022;-52
2024/01/26 11:07:34;;;;;;;10.68;4.32;;;;;;;;;;5074114;28;20432;-52
2024/01/26 11:10:02;;;;;;;10.25;4.07;;;;;;;;;;5073886;28;20123;-48
2024/01/26 11:12:29;;;;;;;13.48;4.28;;;;;;;;;;5060546;28;20036;-52
2024/01/26 11:15:08;;;;;;;16.67;4.75;;;;;;;;;;5069973;28;20123;-49
2024/01/26 11:17:54;;;;;;;17.83;4.60;;;;;;;;;;5072288;28;20413;-53
2024/01/26 11:20:31;;;;;;;11.32;4.90;;;;;;;;;;5063121;28;20051;-47
2024/01/26 11:23:00;;;;;;;14.15;4.55;;;;;;;;;;5073816;28;20822;-50
2024/01/26 11:25:26;;;;;;;14.57;4.43;;;;;;;;;;5073024;28;20024;-60
2024/01/26 11:27:59;;;;;;;11.43;4.82;;;;;;;;;;5072893;28;20040;-49
2024/01/26 11:30:25;;;;;;;12.80;5.07;;;;;;;;;;5070177;28;20401;-49
2024/01/26 11:32:51;;;;;;;11.13;3.67;;;;;;;;;;5073389;28;20396;-48
2024/01/26 11:35:19;;;;;;;11.05;3.20;;;;;;;;;;5072457;28;20029;-52
2024/01/26 11:37:45;;;;;;;9.65;3.90;;;;;;;;;;5073760;28;20055;-60
2024/01/26 11:40:12;;;;;;;9.45;3.78;;;;;;;;;;5073139;28;20393;-61
2024/01/26 11:42:38;;;;;;;14.30;3.88;;;;;;;;;;5073605;28;20505;-61
2024/01/26 11:45:13;;;;;;;16.15;4.05;;;;;;;;;;5072883;28;20024;-60
2024/01/26 11:47:40;;;;;;;7.68;2.88;;;;;;;;;;5069593;28;20078;-58
2024/01/26 11:50:09;;;;;;;8.70;3.50;;;;;;;;;;5073338;28;20029;-60
2024/01/26 11:52:36;;;;;;;9.93;3.70;;;;;;;;;;5073397;28;20027;-60
2024/01/26 11:55:02;;;;;;;11.82;3.80;;;;;;;;;;5071901;28;20113;-54
2024/01/26 11:57:35;;;;;;;11.60;3.58;;;;;;;;;;5069153;28;20513;-60
2024/01/26 12:00:09;;;;;;;19.88;4.70;;;;;;;;;;5072218;28;20383;-60
2024/01/26 12:02:35;;;;;;;10.55;3.78;;;;;;;;;;5066097;28;20398;-60
2024/01/26 12:05:01;;;;;;;10.00;3.85;;;;;;;;;;5072622;28;20336;-60
2024/01/26 12:07:27;;;;;;;6.80;2.83;;;;;;;;;;5073085;28;20100;-60
2024/01/26 12:09:53;;;;;;;10.68;3.30;;;;;;;;;;5072656;28;20060;-60
2024/01/26 12:12:20;;;;;;;8.68;4.07;;;;;;;;;;5061016;28;20112;-59
2024/01/26 12:14:46;;;;;;;10.35;3.53;;;;;;;;;;5068855;28;20044;-59
2024/01/26 12:17:12;;;;;;;10.38;3.50;;;;;;;;;;5072765;28;20165;-60
2024/01/26 12:19:38;;;;;;;13.27;3.67;;;;;;;;;;5071612;28;20108;-58
2024/01/26 12:22:07;;;;;;;11.40;3.95;;;;;;;;;;5072095;28;20020;-59
2024/01/26 12:24:37;;;;;;;8.43;3.97;;;;;;;;;;5071643;28;20035;-60
2024/01/26 12:27:03;;;;;;;10.50;4.30;;;;;;;;;;5069646;28;20036;-60
2024/01/26 12:29:29;;;;;;;6.95;3.63;;;;;;;;;;5058945;28;20040;-59
2024/01/26 12:32:11;;;;;;;12.07;3.72;;;;;;;;;;5069477;28;20037;-59
2024/01/26 12:34:37;;;;;;;12.93;4.03;;;;;;;;;;5066945;28;20498;-60
2024/01/26 12:37:06;;;;;;;10.88;3.92;;;;;;;;;;5072360;28;20025;-60
2024/01/26 12:39:33;;;;;;;12.32;3.47;;;;;;;;;;5071480;28;20559;-59
2024/01/26 12:41:59;;;;;;;8.38;3.67;;;;;;;;;;5061455;28;20039;-60
2024/01/26 12:44:31;;;;;;;8.82;4.00;;;;;;;;;;5071085;28;20165;-60
2024/01/26 12:46:57;;;;;;;7.72;3.65;;;;;;;;;;5070168;28;20029;-50
2024/01/26 12:49:23;;;;;;;6.28;3.75;;;;;;;;;;5062487;28;20021;-52
2024/01/26 12:51:50;;;;;;;8.52;4.10;;;;;;;;;;5058659;28;20515;-50
2024/01/26 12:54:16;;;;;;;8.80;4.05;;;;;;;;;;5070851;28;20371;-52
2024/01/26 12:56:42;;;;;;;7.35;3.80;;;;;;;;;;5071277;28;20052;-52
2024/01/26 12:59:08;;;;;;;9.40;4.53;;;;;;;;;;5068085;28;20090;-51
2024/01/26 13:01:35;;;;;;;10.35;4.03;;;;;;;;;;5066671;28;20086;-52
2024/01/26 13:04:01;;;;;;;8.98;3.50;;;;;;;;;;5070155;28;20441;-54
2024/01/26 13:06:27;;;;;;;9.48;4.15;;;;;;;;;;5071678;28;20121;-52
2024/01/26 13:08:53;;;;;;;7.07;4.00;;;;;;;;;;5063267;28;20029;-52
2024/01/26 13:11:19;;;;;;;13.00;4.28;;;;;;;;;;5069695;28;20128;-51
2024/01/26 13:13:46;;;;;;;11.27;3.58;;;;;;;;;;5071335;28;20044;-54
2024/01/26 13:16:12;;;;;;;8.30;3.90;;;;;;;;;;5071697;28;20028;-50
2024/01/26 13:18:40;;;;;;;7.95;3.90;;;;;;;;;;5071414;28;20031;-51
2024/01/26 13:21:06;;;;;;;8.85;3.70;;;;;;;;;;5068598;28;20490;-52
2024/01/26 13:23:32;;;;;;;8.70;3.55;;;;;;;;;;5062243;28;20028;-53
2024/01/26 13:25:58;;;;;;;7.63;3.38;;;;;;;;;;5070292;28;20058;-53
2024/01/26 13:28:24;;;;;;;6.35;3.45;;;;;;;;;;5071005;28;20020;-54
2024/01/26 13:30:53;;;;;;;5.15;2.55;;;;;;;;;;5069348;28;20021;-54
2024/01/26 13:33:19;;;;;;;7.60;3.53;;;;;;;;;;5070326;28;20397;-54
2024/01/26 13:35:46;;;;;;;7.35;3.28;;;;;;;;;;5070765;28;20028;-54
2024/01/26 13:38:12;;;;;;;6.50;3.13;;;;;;;;;;5070965;28;20405;-55
2024/01/26 13:40:38;;;;;;;8.35;3.25;;;;;;;;;;5068353;28;20021;-54
2024/01/26 13:43:04;;;;;;;8.00;3.60;;;;;;;;;;5061482;28;20024;-50
2024/01/26 13:45:30;;;;;;;7.75;3.47;;;;;;;;;;5069286;28;20024;-49
2024/01/26 13:47:56;;;;;;;5.22;3.35;;;;;;;;;;5071406;28;20031;-58
2024/01/26 13:50:22;;;;;;;5.53;3.08;;;;;;;;;;5070204;28;20067;-59
2024/01/26 13:52:48;;;;;;;5.70;3.50;;;;;;;;;;5069116;28;20031;-60
2024/01/26 13:55:14;;;;;;;8.05;3.47;;;;;;;;;;5065851;28;20028;-60
2024/01/26 13:57:41;;;;;;;6.05;3.20;;;;;;;;;;5067611;28;20121;-50
2024/01/26 14:00:08;;;;;;;5.18;3.22;;;;;;;;;;5068047;28;20047;-54
2024/01/26 14:02:34;;;;;;;5.75;2.92;;;;;;;;;;5064217;28;20027;-51
2024/01/26 14:05:01;;;;;;;5.65;3.13;;;;;;;;;;5070692;28;20037;-51
2024/01/26 14:07:27;;;;;;;4.38;2.63;;;;;;;;;;5070413;28;20085;-52
2024/01/26 14:09:53;;;;;;;5.43;3.22;;;;;;;;;;5071046;28;20072;-54
2024/01/26 14:12:20;;;;;;;7.07;3.30;;;;;;;;;;5067306;28;20432;-54
2024/01/26 14:14:46;;;;;;;4.78;2.67;;;;;;;;;;5060241;28;20522;-51
2024/01/26 14:17:14;;;;;;;4.75;2.92;;;;;;;;;;5061910;28;20037;-55
2024/01/26 14:19:40;;;;;;;5.13;2.83;;;;;;;;;;5070405;28;20027;-48
2024/01/26 14:22:06;;;;;;;6.28;2.67;;;;;;;;;;5064239;28;20036;-50
2024/01/26 14:24:32;;;;;;;6.25;3.17;;;;;;;;;;5066965;28;20522;-50
2024/01/26 14:26:58;;;;;;;5.05;2.50;;;;;;;;;;5074327;28;20037;-51